sensor_id;sensor_type;location;lat;lon;timestamp;temperature;humidity
67769;DHT22;54569;52.018;5.584;2023-07-09T00:00:48;24.60;64.00
67769;DHT22;54569;52.018;5.584;2023-07-09T00:03:15;24.50;63.70
67769;DHT22;54569;52.018;5.584;2023-07-09T00:05:41;24.60;63.80
67769;DHT22;54569;52.018;5.584;2023-07-09T00:08:35;24.50;63.80
67769;DHT22;54569;52.018;5.584;2023-07-09T00:11:02;24.50;64.40
67769;DHT22;54569;52.018;5.584;2023-07-09T00:13:28;24.40;64.00
67769;DHT22;54569;52.018;5.584;2023-07-09T00:16:00;24.40;64.10
67769;DHT22;54569;52.018;5.584;2023-07-09T00:18:26;24.30;64.30
67769;DHT22;54569;52.018;5.584;2023-07-09T00:20:52;24.40;64.30
67769;DHT22;54569;52.018;5.584;2023-07-09T00:23:17;24.20;64.20
67769;DHT22;54569;52.018;5.584;2023-07-09T00:25:46;24.20;64.20
67769;DHT22;54569;52.018;5.584;2023-07-09T00:28:17;24.20;64.50
67769;DHT22;54569;52.018;5.584;2023-07-09T00:30:44;24.20;64.70
67769;DHT22;54569;52.018;5.584;2023-07-09T00:33:11;24.10;64.70
67769;DHT22;54569;52.018;5.584;2023-07-09T00:35:44;24.10;64.70
67769;DHT22;54569;52.018;5.584;2023-07-09T00:38:21;24.10;64.70
67769;DHT22;54569;52.018;5.584;2023-07-09T00:41:12;24.10;65.20
67769;DHT22;54569;52.018;5.584;2023-07-09T00:43:45;24.10;65.80
67769;DHT22;54569;52.018;5.584;2023-07-09T00:48:56;24.00;65.70
67769;DHT22;54569;52.018;5.584;2023-07-09T00:51:24;23.90;65.40
67769;DHT22;54569;52.018;5.584;2023-07-09T00:53:54;23.90;65.50
67769;DHT22;54569;52.018;5.584;2023-07-09T00:56:36;23.90;65.60
67769;DHT22;54569;52.018;5.584;2023-07-09T00:59:08;23.90;66.20
67769;DHT22;54569;52.018;5.584;2023-07-09T01:01:37;23.80;65.80
67769;DHT22;54569;52.018;5.584;2023-07-09T01:04:08;23.80;65.80
67769;DHT22;54569;52.018;5.584;2023-07-09T01:06:37;23.80;66.10
67769;DHT22;54569;52.018;5.584;2023-07-09T01:09:06;23.80;66.30
67769;DHT22;54569;52.018;5.584;2023-07-09T01:11:32;23.70;66.50
67769;DHT22;54569;52.018;5.584;2023-07-09T01:14:05;23.70;66.50
67769;DHT22;54569;52.018;5.584;2023-07-09T01:16:35;23.70;66.70
67769;DHT22;54569;52.018;5.584;2023-07-09T01:19:04;23.70;66.60
67769;DHT22;54569;52.018;5.584;2023-07-09T01:21:30;23.70;66.70
67769;DHT22;54569;52.018;5.584;2023-07-09T01:23:56;23.70;66.80
67769;DHT22;54569;52.018;5.584;2023-07-09T01:26:25;23.70;66.80
67769;DHT22;54569;52.018;5.584;2023-07-09T01:28:56;23.70;67.00
67769;DHT22;54569;52.018;5.584;2023-07-09T01:31:22;23.70;67.00
67769;DHT22;54569;52.018;5.584;2023-07-09T01:33:48;23.60;67.60
67769;DHT22;54569;52.018;5.584;2023-07-09T01:36:19;23.70;68.10
67769;DHT22;54569;52.018;5.584;2023-07-09T01:38:50;23.70;67.60
67769;DHT22;54569;52.018;5.584;2023-07-09T01:41:16;23.70;68.60
67769;DHT22;54569;52.018;5.584;2023-07-09T01:43:44;23.60;68.00
67769;DHT22;54569;52.018;5.584;2023-07-09T01:46:11;23.60;68.20
67769;DHT22;54569;52.018;5.584;2023-07-09T01:48:38;23.50;68.20
67769;DHT22;54569;52.018;5.584;2023-07-09T01:51:10;23.50;68.20
67769;DHT22;54569;52.018;5.584;2023-07-09T01:53:38;23.50;68.30
67769;DHT22;54569;52.018;5.584;2023-07-09T01:56:04;23.50;68.30
67769;DHT22;54569;52.018;5.584;2023-07-09T01:58:30;23.40;68.40
67769;DHT22;54569;52.018;5.584;2023-07-09T02:00:58;23.40;68.50
67769;DHT22;54569;52.018;5.584;2023-07-09T02:03:24;23.40;68.40
67769;DHT22;54569;52.018;5.584;2023-07-09T02:05:53;23.40;68.50
67769;DHT22;54569;52.018;5.584;2023-07-09T02:08:21;23.40;68.40
67769;DHT22;54569;52.018;5.584;2023-07-09T02:10:50;23.30;68.40
67769;DHT22;54569;52.018;5.584;2023-07-09T02:13:16;23.30;68.40
67769;DHT22;54569;52.018;5.584;2023-07-09T02:15:43;23.30;68.30
67769;DHT22;54569;52.018;5.584;2023-07-09T02:18:11;23.30;68.50
67769;DHT22;54569;52.018;5.584;2023-07-09T02:20:37;23.30;68.50
67769;DHT22;54569;52.018;5.584;2023-07-09T02:23:03;23.30;68.60
67769;DHT22;54569;52.018;5.584;2023-07-09T02:25:30;23.20;68.60
67769;DHT22;54569;52.018;5.584;2023-07-09T02:27:55;23.30;68.80
67769;DHT22;54569;52.018;5.584;2023-07-09T02:30:21;23.20;68.60
67769;DHT22;54569;52.018;5.584;2023-07-09T02:32:47;23.20;68.70
67769;DHT22;54569;52.018;5.584;2023-07-09T02:35:12;23.20;68.70
67769;DHT22;54569;52.018;5.584;2023-07-09T02:37:38;23.20;68.80
67769;DHT22;54569;52.018;5.584;2023-07-09T02:40:05;23.20;68.90
67769;DHT22;54569;52.018;5.584;2023-07-09T02:42:31;23.10;68.70
67769;DHT22;54569;52.018;5.584;2023-07-09T02:44:58;23.10;68.90
67769;DHT22;54569;52.018;5.584;2023-07-09T02:47:26;23.10;69.10
67769;DHT22;54569;52.018;5.584;2023-07-09T02:49:53;23.10;69.30
67769;DHT22;54569;52.018;5.584;2023-07-09T02:52:18;23.10;69.30
67769;DHT22;54569;52.018;5.584;2023-07-09T02:54:44;23.00;69.30
67769;DHT22;54569;52.018;5.584;2023-07-09T02:57:10;23.00;69.30
67769;DHT22;54569;52.018;5.584;2023-07-09T02:59:36;22.90;70.10
67769;DHT22;54569;52.018;5.584;2023-07-09T03:02:03;22.90;69.60
67769;DHT22;54569;52.018;5.584;2023-07-09T03:04:29;22.90;69.70
67769;DHT22;54569;52.018;5.584;2023-07-09T03:06:57;22.90;69.80
67769;DHT22;54569;52.018;5.584;2023-07-09T03:09:23;22.80;69.90
67769;DHT22;54569;52.018;5.584;2023-07-09T03:11:49;22.70;70.10
67769;DHT22;54569;52.018;5.584;2023-07-09T03:14:15;22.70;70.30
67769;DHT22;54569;52.018;5.584;2023-07-09T03:16:41;22.60;70.60
67769;DHT22;54569;52.018;5.584;2023-07-09T03:19:07;22.50;70.80
67769;DHT22;54569;52.018;5.584;2023-07-09T03:21:33;22.50;70.90
67769;DHT22;54569;52.018;5.584;2023-07-09T03:23:59;22.50;71.00
67769;DHT22;54569;52.018;5.584;2023-07-09T03:26:25;22.50;71.00
67769;DHT22;54569;52.018;5.584;2023-07-09T03:28:54;22.40;70.90
67769;DHT22;54569;52.018;5.584;2023-07-09T03:31:20;22.40;71.00
67769;DHT22;54569;52.018;5.584;2023-07-09T03:33:47;22.40;71.10
67769;DHT22;54569;52.018;5.584;2023-07-09T03:36:14;22.40;71.10
67769;DHT22;54569;52.018;5.584;2023-07-09T03:38:40;22.40;71.20
67769;DHT22;54569;52.018;5.584;2023-07-09T03:41:05;22.40;71.20
67769;DHT22;54569;52.018;5.584;2023-07-09T03:43:32;22.40;71.20
67769;DHT22;54569;52.018;5.584;2023-07-09T03:45:58;22.40;71.10
67769;DHT22;54569;52.018;5.584;2023-07-09T03:48:24;22.40;71.20
67769;DHT22;54569;52.018;5.584;2023-07-09T03:50:50;22.40;71.10
67769;DHT22;54569;52.018;5.584;2023-07-09T03:53:16;22.40;71.20
67769;DHT22;54569;52.018;5.584;2023-07-09T03:55:42;22.40;71.20
67769;DHT22;54569;52.018;5.584;2023-07-09T03:58:08;22.40;71.20
67769;DHT22;54569;52.018;5.584;2023-07-09T04:00:35;22.40;71.20
67769;DHT22;54569;52.018;5.584;2023-07-09T04:03:01;22.40;71.10
67769;DHT22;54569;52.018;5.584;2023-07-09T04:05:27;22.50;71.20
67769;DHT22;54569;52.018;5.584;2023-07-09T04:07:53;22.40;71.20
67769;DHT22;54569;52.018;5.584;2023-07-09T04:10:19;22.50;71.40
67769;DHT22;54569;52.018;5.584;2023-07-09T04:12:45;22.50;71.40
67769;DHT22;54569;52.018;5.584;2023-07-09T04:15:11;22.50;71.40
67769;DHT22;54569;52.018;5.584;2023-07-09T04:17:39;22.50;71.30
67769;DHT22;54569;52.018;5.584;2023-07-09T04:20:06;22.50;71.40
67769;DHT22;54569;52.018;5.584;2023-07-09T04:22:33;22.50;71.50
67769;DHT22;54569;52.018;5.584;2023-07-09T04:25:00;22.50;71.60
67769;DHT22;54569;52.018;5.584;2023-07-09T04:27:28;22.50;71.90
67769;DHT22;54569;52.018;5.584;2023-07-09T04:29:54;22.50;71.80
67769;DHT22;54569;52.018;5.584;2023-07-09T04:32:20;22.50;71.60
67769;DHT22;54569;52.018;5.584;2023-07-09T04:34:47;22.50;71.70
67769;DHT22;54569;52.018;5.584;2023-07-09T04:37:13;22.50;71.90
67769;DHT22;54569;52.018;5.584;2023-07-09T04:39:39;22.60;71.90
67769;DHT22;54569;52.018;5.584;2023-07-09T04:42:06;22.60;71.80
67769;DHT22;54569;52.018;5.584;2023-07-09T04:44:36;22.60;71.70
67769;DHT22;54569;52.018;5.584;2023-07-09T04:47:01;22.60;71.60
67769;DHT22;54569;52.018;5.584;2023-07-09T04:49:27;22.70;71.70
67769;DHT22;54569;52.018;5.584;2023-07-09T04:51:53;22.70;71.80
67769;DHT22;54569;52.018;5.584;2023-07-09T04:54:24;22.70;72.20
67769;DHT22;54569;52.018;5.584;2023-07-09T04:56:50;22.70;72.50
67769;DHT22;54569;52.018;5.584;2023-07-09T04:59:16;22.70;72.60
67769;DHT22;54569;52.018;5.584;2023-07-09T05:01:42;22.70;72.80
67769;DHT22;54569;52.018;5.584;2023-07-09T05:04:07;22.70;72.80
67769;DHT22;54569;52.018;5.584;2023-07-09T05:06:34;22.80;72.80
67769;DHT22;54569;52.018;5.584;2023-07-09T05:09:00;22.80;72.60
67769;DHT22;54569;52.018;5.584;2023-07-09T05:11:26;22.90;72.80
67769;DHT22;54569;52.018;5.584;2023-07-09T05:13:52;22.90;72.60
67769;DHT22;54569;52.018;5.584;2023-07-09T05:16:17;22.90;72.60
67769;DHT22;54569;52.018;5.584;2023-07-09T05:18:45;22.90;72.30
67769;DHT22;54569;52.018;5.584;2023-07-09T05:21:11;23.00;72.30
67769;DHT22;54569;52.018;5.584;2023-07-09T05:23:37;23.00;72.30
67769;DHT22;54569;52.018;5.584;2023-07-09T05:26:03;23.00;72.30
67769;DHT22;54569;52.018;5.584;2023-07-09T05:28:30;23.00;72.40
67769;DHT22;54569;52.018;5.584;2023-07-09T05:30:58;23.00;72.30
67769;DHT22;54569;52.018;5.584;2023-07-09T05:33:24;23.10;72.20
67769;DHT22;54569;52.018;5.584;2023-07-09T05:35:50;23.00;72.10
67769;DHT22;54569;52.018;5.584;2023-07-09T05:38:16;23.10;72.40
67769;DHT22;54569;52.018;5.584;2023-07-09T05:40:42;23.10;72.40
67769;DHT22;54569;52.018;5.584;2023-07-09T05:43:08;23.10;72.30
67769;DHT22;54569;52.018;5.584;2023-07-09T05:45:34;23.10;72.30
67769;DHT22;54569;52.018;5.584;2023-07-09T05:48:00;23.20;72.40
67769;DHT22;54569;52.018;5.584;2023-07-09T05:50:28;23.20;72.50
67769;DHT22;54569;52.018;5.584;2023-07-09T05:52:54;23.20;72.60
67769;DHT22;54569;52.018;5.584;2023-07-09T05:55:19;23.30;72.70
67769;DHT22;54569;52.018;5.584;2023-07-09T05:57:45;23.40;72.60
67769;DHT22;54569;52.018;5.584;2023-07-09T06:00:11;23.40;72.40
67769;DHT22;54569;52.018;5.584;2023-07-09T06:02:41;23.40;72.30
67769;DHT22;54569;52.018;5.584;2023-07-09T06:05:07;23.50;72.30
67769;DHT22;54569;52.018;5.584;2023-07-09T06:07:37;23.60;72.50
67769;DHT22;54569;52.018;5.584;2023-07-09T06:10:07;23.70;72.60
67769;DHT22;54569;52.018;5.584;2023-07-09T06:12:33;23.70;72.60
67769;DHT22;54569;52.018;5.584;2023-07-09T06:15:03;23.80;72.60
67769;DHT22;54569;52.018;5.584;2023-07-09T06:17:28;23.90;72.70
67769;DHT22;54569;52.018;5.584;2023-07-09T06:19:54;23.90;72.70
67769;DHT22;54569;52.018;5.584;2023-07-09T06:22:20;23.90;72.80
67769;DHT22;54569;52.018;5.584;2023-07-09T06:24:46;24.00;73.00
67769;DHT22;54569;52.018;5.584;2023-07-09T06:27:11;24.10;72.80
67769;DHT22;54569;52.018;5.584;2023-07-09T06:29:37;24.20;72.90
67769;DHT22;54569;52.018;5.584;2023-07-09T06:32:04;24.20;72.50
67769;DHT22;54569;52.018;5.584;2023-07-09T06:34:30;24.30;72.00
67769;DHT22;54569;52.018;5.584;2023-07-09T06:36:56;24.30;72.10
67769;DHT22;54569;52.018;5.584;2023-07-09T06:39:22;24.40;71.90
67769;DHT22;54569;52.018;5.584;2023-07-09T06:41:49;24.50;71.70
67769;DHT22;54569;52.018;5.584;2023-07-09T06:44:53;24.50;71.40
67769;DHT22;54569;52.018;5.584;2023-07-09T06:47:19;24.60;71.20
67769;DHT22;54569;52.018;5.584;2023-07-09T06:49:44;24.60;70.90
67769;DHT22;54569;52.018;5.584;2023-07-09T06:52:10;24.70;71.00
67769;DHT22;54569;52.018;5.584;2023-07-09T06:54:35;24.80;70.80
67769;DHT22;54569;52.018;5.584;2023-07-09T06:57:01;24.90;71.00
67769;DHT22;54569;52.018;5.584;2023-07-09T06:59:27;24.90;70.90
67769;DHT22;54569;52.018;5.584;2023-07-09T07:01:52;25.00;70.90
67769;DHT22;54569;52.018;5.584;2023-07-09T07:04:18;25.10;70.80
67769;DHT22;54569;52.018;5.584;2023-07-09T07:06:44;25.10;70.90
67769;DHT22;54569;52.018;5.584;2023-07-09T07:09:10;25.20;71.00
67769;DHT22;54569;52.018;5.584;2023-07-09T07:11:35;25.30;70.70
67769;DHT22;54569;52.018;5.584;2023-07-09T07:14:01;25.40;70.70
67769;DHT22;54569;52.018;5.584;2023-07-09T07:16:27;25.40;70.50
67769;DHT22;54569;52.018;5.584;2023-07-09T07:18:53;25.50;70.30
67769;DHT22;54569;52.018;5.584;2023-07-09T07:21:18;25.60;70.30
67769;DHT22;54569;52.018;5.584;2023-07-09T07:23:44;25.70;70.20
67769;DHT22;54569;52.018;5.584;2023-07-09T07:26:10;25.80;70.10
67769;DHT22;54569;52.018;5.584;2023-07-09T07:28:36;25.90;69.60
67769;DHT22;54569;52.018;5.584;2023-07-09T07:31:04;26.00;69.50
67769;DHT22;54569;52.018;5.584;2023-07-09T07:33:30;26.00;69.50
67769;DHT22;54569;52.018;5.584;2023-07-09T07:35:55;26.10;69.20
67769;DHT22;54569;52.018;5.584;2023-07-09T07:38:21;26.30;69.40
67769;DHT22;54569;52.018;5.584;2023-07-09T07:40:47;26.30;68.80
67769;DHT22;54569;52.018;5.584;2023-07-09T07:43:12;26.40;68.70
67769;DHT22;54569;52.018;5.584;2023-07-09T07:45:42;26.50;68.30
67769;DHT22;54569;52.018;5.584;2023-07-09T07:48:08;26.60;68.30
67769;DHT22;54569;52.018;5.584;2023-07-09T07:50:34;26.70;68.30
67769;DHT22;54569;52.018;5.584;2023-07-09T07:52:59;26.80;67.90
67769;DHT22;54569;52.018;5.584;2023-07-09T07:55:25;26.90;67.40
67769;DHT22;54569;52.018;5.584;2023-07-09T07:57:51;27.00;67.00
67769;DHT22;54569;52.018;5.584;2023-07-09T08:00:17;27.10;66.70
67769;DHT22;54569;52.018;5.584;2023-07-09T08:02:45;27.20;66.40
67769;DHT22;54569;52.018;5.584;2023-07-09T08:05:11;27.30;66.40
67769;DHT22;54569;52.018;5.584;2023-07-09T08:07:37;27.40;66.30
67769;DHT22;54569;52.018;5.584;2023-07-09T08:10:03;27.50;66.10
67769;DHT22;54569;52.018;5.584;2023-07-09T08:12:29;27.60;66.10
67769;DHT22;54569;52.018;5.584;2023-07-09T08:14:54;27.70;66.00
67769;DHT22;54569;52.018;5.584;2023-07-09T08:17:20;27.80;65.50
67769;DHT22;54569;52.018;5.584;2023-07-09T08:19:48;27.90;65.30
67769;DHT22;54569;52.018;5.584;2023-07-09T08:22:15;28.00;65.20
67769;DHT22;54569;52.018;5.584;2023-07-09T08:24:41;28.10;65.30
67769;DHT22;54569;52.018;5.584;2023-07-09T08:27:08;28.20;64.50
67769;DHT22;54569;52.018;5.584;2023-07-09T08:29:34;28.20;64.30
67769;DHT22;54569;52.018;5.584;2023-07-09T08:32:00;28.30;64.30
67769;DHT22;54569;52.018;5.584;2023-07-09T08:34:26;28.40;64.10
67769;DHT22;54569;52.018;5.584;2023-07-09T08:36:51;28.50;64.40
67769;DHT22;54569;52.018;5.584;2023-07-09T08:39:17;28.60;64.10
67769;DHT22;54569;52.018;5.584;2023-07-09T08:41:47;28.60;64.00
67769;DHT22;54569;52.018;5.584;2023-07-09T08:49:57;28.90;64.00
67769;DHT22;54569;52.018;5.584;2023-07-09T08:52:33;28.90;63.50
67769;DHT22;54569;52.018;5.584;2023-07-09T08:55:25;29.00;63.00
67769;DHT22;54569;52.018;5.584;2023-07-09T08:58:16;29.10;63.00
67769;DHT22;54569;52.018;5.584;2023-07-09T09:03:28;29.40;63.20
67769;DHT22;54569;52.018;5.584;2023-07-09T09:05:55;29.40;62.80
67769;DHT22;54569;52.018;5.584;2023-07-09T09:13:55;29.70;62.10
67769;DHT22;54569;52.018;5.584;2023-07-09T09:16:35;29.80;62.00
67769;DHT22;54569;52.018;5.584;2023-07-09T09:19:02;29.90;61.30
67769;DHT22;54569;52.018;5.584;2023-07-09T09:21:35;29.90;61.50
67769;DHT22;54569;52.018;5.584;2023-07-09T09:24:25;30.00;61.50
67769;DHT22;54569;52.018;5.584;2023-07-09T09:26:53;30.10;61.10
67769;DHT22;54569;52.018;5.584;2023-07-09T09:29:24;30.20;61.20
67769;DHT22;54569;52.018;5.584;2023-07-09T09:31:53;30.30;61.20
67769;DHT22;54569;52.018;5.584;2023-07-09T09:34:27;30.40;60.60
67769;DHT22;54569;52.018;5.584;2023-07-09T09:36:55;30.50;60.70
67769;DHT22;54569;52.018;5.584;2023-07-09T09:39:23;30.60;60.60
67769;DHT22;54569;52.018;5.584;2023-07-09T09:41:55;30.70;59.60
67769;DHT22;54569;52.018;5.584;2023-07-09T09:44:31;30.90;58.90
67769;DHT22;54569;52.018;5.584;2023-07-09T09:46:58;31.20;58.50
67769;DHT22;54569;52.018;5.584;2023-07-09T09:49:24;31.40;58.40
67769;DHT22;54569;52.018;5.584;2023-07-09T09:51:50;31.60;58.10
67769;DHT22;54569;52.018;5.584;2023-07-09T09:54:27;31.80;57.50
67769;DHT22;54569;52.018;5.584;2023-07-09T09:56:56;32.00;57.10
67769;DHT22;54569;52.018;5.584;2023-07-09T09:59:29;32.20;56.90
67769;DHT22;54569;52.018;5.584;2023-07-09T10:02:19;32.40;57.40
67769;DHT22;54569;52.018;5.584;2023-07-09T10:04:46;32.50;56.10
67769;DHT22;54569;52.018;5.584;2023-07-09T10:07:34;32.60;56.40
67769;DHT22;54569;52.018;5.584;2023-07-09T10:10:01;32.70;55.90
67769;DHT22;54569;52.018;5.584;2023-07-09T10:15:41;33.00;54.90
67769;DHT22;54569;52.018;5.584;2023-07-09T10:18:29;33.10;55.30
67769;DHT22;54569;52.018;5.584;2023-07-09T10:21:10;33.20;54.80
67769;DHT22;54569;52.018;5.584;2023-07-09T10:26:53;33.30;53.50
67769;DHT22;54569;52.018;5.584;2023-07-09T10:32:00;33.60;54.50
67769;DHT22;54569;52.018;5.584;2023-07-09T10:39:42;33.70;51.90
67769;DHT22;54569;52.018;5.584;2023-07-09T10:42:16;33.80;52.10
67769;DHT22;54569;52.018;5.584;2023-07-09T10:44:46;34.00;51.10
67769;DHT22;54569;52.018;5.584;2023-07-09T10:50:32;34.00;50.70
67769;DHT22;54569;52.018;5.584;2023-07-09T10:53:04;34.10;49.40
67769;DHT22;54569;52.018;5.584;2023-07-09T10:55:38;34.30;50.80
67769;DHT22;54569;52.018;5.584;2023-07-09T11:00:45;34.70;50.10
67769;DHT22;54569;52.018;5.584;2023-07-09T11:03:28;34.80;50.70
67769;DHT22;54569;52.018;5.584;2023-07-09T11:05:58;35.00;48.30
67769;DHT22;54569;52.018;5.584;2023-07-09T11:08:35;34.90;49.40
67769;DHT22;54569;52.018;5.584;2023-07-09T11:11:06;35.00;48.70
67769;DHT22;54569;52.018;5.584;2023-07-09T11:13:39;35.00;49.10
67769;DHT22;54569;52.018;5.584;2023-07-09T11:16:06;35.10;49.00
67769;DHT22;54569;52.018;5.584;2023-07-09T11:18:35;35.10;48.70
67769;DHT22;54569;52.018;5.584;2023-07-09T11:21:03;35.10;48.80
67769;DHT22;54569;52.018;5.584;2023-07-09T11:23:52;35.20;49.00
67769;DHT22;54569;52.018;5.584;2023-07-09T11:26:32;35.30;47.10
67769;DHT22;54569;52.018;5.584;2023-07-09T11:29:22;35.40;47.40
67769;DHT22;54569;52.018;5.584;2023-07-09T11:31:48;35.40;48.50
67769;DHT22;54569;52.018;5.584;2023-07-09T11:34:19;35.50;48.30
67769;DHT22;54569;52.018;5.584;2023-07-09T11:36:57;35.50;47.60
67769;DHT22;54569;52.018;5.584;2023-07-09T11:41:55;35.70;47.30
67769;DHT22;54569;52.018;5.584;2023-07-09T11:44:26;35.80;46.90
67769;DHT22;54569;52.018;5.584;2023-07-09T11:49:57;36.00;44.10
67769;DHT22;54569;52.018;5.584;2023-07-09T11:52:41;36.10;46.10
67769;DHT22;54569;52.018;5.584;2023-07-09T11:55:28;36.10;46.00
67769;DHT22;54569;52.018;5.584;2023-07-09T11:57:59;36.00;44.10
67769;DHT22;54569;52.018;5.584;2023-07-09T12:00:28;35.90;46.70
67769;DHT22;54569;52.018;5.584;2023-07-09T12:02:55;35.70;46.40
67769;DHT22;54569;52.018;5.584;2023-07-09T12:05:27;35.50;47.00
67769;DHT22;54569;52.018;5.584;2023-07-09T12:07:55;35.40;46.60
67769;DHT22;54569;52.018;5.584;2023-07-09T12:10:24;35.30;47.60
67769;DHT22;54569;52.018;5.584;2023-07-09T12:12:58;35.20;47.10
67769;DHT22;54569;52.018;5.584;2023-07-09T12:15:26;35.20;47.30
67769;DHT22;54569;52.018;5.584;2023-07-09T12:18:08;35.10;47.70
67769;DHT22;54569;52.018;5.584;2023-07-09T12:20:36;35.00;47.10
67769;DHT22;54569;52.018;5.584;2023-07-09T12:25:50;34.90;47.00
67769;DHT22;54569;52.018;5.584;2023-07-09T12:28:18;34.70;47.70
67769;DHT22;54569;52.018;5.584;2023-07-09T12:30:49;34.60;48.80
67769;DHT22;54569;52.018;5.584;2023-07-09T12:33:20;34.50;48.20
67769;DHT22;54569;52.018;5.584;2023-07-09T12:35:47;34.40;48.20
67769;DHT22;54569;52.018;5.584;2023-07-09T12:38:23;34.40;48.50
67769;DHT22;54569;52.018;5.584;2023-07-09T12:40:50;34.40;48.20
67769;DHT22;54569;52.018;5.584;2023-07-09T12:43:30;34.30;48.50
67769;DHT22;54569;52.018;5.584;2023-07-09T12:45:58;34.30;48.20
67769;DHT22;54569;52.018;5.584;2023-07-09T12:48:29;34.30;48.70
67769;DHT22;54569;52.018;5.584;2023-07-09T12:50:57;34.30;48.70
67769;DHT22;54569;52.018;5.584;2023-07-09T12:53:28;34.40;48.90
67769;DHT22;54569;52.018;5.584;2023-07-09T12:55:59;34.50;49.00
67769;DHT22;54569;52.018;5.584;2023-07-09T12:58:36;34.50;49.60
67769;DHT22;54569;52.018;5.584;2023-07-09T13:01:15;34.60;48.00
67769;DHT22;54569;52.018;5.584;2023-07-09T13:03:41;34.50;48.20
67769;DHT22;54569;52.018;5.584;2023-07-09T13:08:57;34.50;47.70
67769;DHT22;54569;52.018;5.584;2023-07-09T13:11:23;34.40;48.90
67769;DHT22;54569;52.018;5.584;2023-07-09T13:13:58;34.40;49.20
67769;DHT22;54569;52.018;5.584;2023-07-09T13:16:24;34.30;49.30
67769;DHT22;54569;52.018;5.584;2023-07-09T13:18:49;34.20;50.00
67769;DHT22;54569;52.018;5.584;2023-07-09T13:21:20;34.20;50.20
67769;DHT22;54569;52.018;5.584;2023-07-09T13:23:46;34.00;50.40
67769;DHT22;54569;52.018;5.584;2023-07-09T13:26:13;34.00;50.60
67769;DHT22;54569;52.018;5.584;2023-07-09T13:28:39;33.90;50.40
67769;DHT22;54569;52.018;5.584;2023-07-09T13:33:36;33.60;50.40
67769;DHT22;54569;52.018;5.584;2023-07-09T13:36:02;33.40;51.00
67769;DHT22;54569;52.018;5.584;2023-07-09T13:38:28;33.30;51.10
67769;DHT22;54569;52.018;5.584;2023-07-09T13:40:56;33.20;51.20
67769;DHT22;54569;52.018;5.584;2023-07-09T13:43:31;33.10;51.10
67769;DHT22;54569;52.018;5.584;2023-07-09T13:45:58;32.90;50.10
67769;DHT22;54569;52.018;5.584;2023-07-09T13:48:26;32.70;50.70
67769;DHT22;54569;52.018;5.584;2023-07-09T13:50:53;32.50;50.90
67769;DHT22;54569;52.018;5.584;2023-07-09T13:53:25;32.30;51.00
67769;DHT22;54569;52.018;5.584;2023-07-09T13:55:52;32.10;51.00
67769;DHT22;54569;52.018;5.584;2023-07-09T13:58:20;31.80;51.50
67769;DHT22;54569;52.018;5.584;2023-07-09T14:00:47;31.60;51.70
67769;DHT22;54569;52.018;5.584;2023-07-09T14:03:21;31.40;51.90
67769;DHT22;54569;52.018;5.584;2023-07-09T14:05:48;31.30;51.90
67769;DHT22;54569;52.018;5.584;2023-07-09T14:08:14;31.10;52.30
67769;DHT22;54569;52.018;5.584;2023-07-09T14:10:40;31.00;52.50
67769;DHT22;54569;52.018;5.584;2023-07-09T14:13:12;30.80;52.50
67769;DHT22;54569;52.018;5.584;2023-07-09T14:15:39;30.70;52.50
67769;DHT22;54569;52.018;5.584;2023-07-09T14:18:12;30.60;52.10
67769;DHT22;54569;52.018;5.584;2023-07-09T14:20:39;30.50;52.20
67769;DHT22;54569;52.018;5.584;2023-07-09T14:23:05;30.30;52.20
67769;DHT22;54569;52.018;5.584;2023-07-09T14:25:31;30.20;52.50
67769;DHT22;54569;52.018;5.584;2023-07-09T14:27:56;30.00;52.40
67769;DHT22;54569;52.018;5.584;2023-07-09T14:30:24;29.90;53.40
67769;DHT22;54569;52.018;5.584;2023-07-09T14:32:52;29.80;52.90
67769;DHT22;54569;52.018;5.584;2023-07-09T14:35:24;29.80;53.00
67769;DHT22;54569;52.018;5.584;2023-07-09T14:37:52;29.70;53.00
67769;DHT22;54569;52.018;5.584;2023-07-09T14:40:20;29.60;53.00
67769;DHT22;54569;52.018;5.584;2023-07-09T14:42:47;29.50;53.00
67769;DHT22;54569;52.018;5.584;2023-07-09T14:45:24;29.40;53.40
67769;DHT22;54569;52.018;5.584;2023-07-09T14:47:54;29.10;53.50
67769;DHT22;54569;52.018;5.584;2023-07-09T14:50:21;28.70;54.70
67769;DHT22;54569;52.018;5.584;2023-07-09T14:52:48;27.90;57.00
67769;DHT22;54569;52.018;5.584;2023-07-09T14:55:16;27.20;58.90
67769;DHT22;54569;52.018;5.584;2023-07-09T14:57:42;26.60;60.90
67769;DHT22;54569;52.018;5.584;2023-07-09T15:00:16;26.20;61.60
67769;DHT22;54569;52.018;5.584;2023-07-09T15:02:43;25.90;62.20
67769;DHT22;54569;52.018;5.584;2023-07-09T15:05:16;25.80;62.50
67769;DHT22;54569;52.018;5.584;2023-07-09T15:07:42;25.70;62.60
67769;DHT22;54569;52.018;5.584;2023-07-09T15:10:18;25.70;62.90
67769;DHT22;54569;52.018;5.584;2023-07-09T15:12:47;25.60;63.40
67769;DHT22;54569;52.018;5.584;2023-07-09T15:15:25;25.70;63.70
67769;DHT22;54569;52.018;5.584;2023-07-09T15:17:52;25.70;64.20
67769;DHT22;54569;52.018;5.584;2023-07-09T15:20:22;25.80;63.60
67769;DHT22;54569;52.018;5.584;2023-07-09T15:22:49;25.80;64.30
67769;DHT22;54569;52.018;5.584;2023-07-09T15:25:20;25.90;64.00
67769;DHT22;54569;52.018;5.584;2023-07-09T15:27:46;26.00;64.30
67769;DHT22;54569;52.018;5.584;2023-07-09T15:30:24;26.10;64.60
67769;DHT22;54569;52.018;5.584;2023-07-09T15:32:50;26.20;64.40
67769;DHT22;54569;52.018;5.584;2023-07-09T15:35:17;26.20;64.30
67769;DHT22;54569;52.018;5.584;2023-07-09T15:37:44;26.20;64.60
67769;DHT22;54569;52.018;5.584;2023-07-09T15:42:47;26.20;65.00
67769;DHT22;54569;52.018;5.584;2023-07-09T15:45:17;26.20;64.90
67769;DHT22;54569;52.018;5.584;2023-07-09T15:47:44;26.20;65.60
67769;DHT22;54569;52.018;5.584;2023-07-09T15:50:14;26.10;65.10
67769;DHT22;54569;52.018;5.584;2023-07-09T15:52:41;26.00;65.10
67769;DHT22;54569;52.018;5.584;2023-07-09T15:55:17;25.90;65.30
67769;DHT22;54569;52.018;5.584;2023-07-09T15:57:45;25.90;65.40
67769;DHT22;54569;52.018;5.584;2023-07-09T16:00:25;25.80;65.30
67769;DHT22;54569;52.018;5.584;2023-07-09T16:02:53;25.80;65.90
67769;DHT22;54569;52.018;5.584;2023-07-09T16:05:23;25.70;65.60
67769;DHT22;54569;52.018;5.584;2023-07-09T16:07:50;25.70;65.80
67769;DHT22;54569;52.018;5.584;2023-07-09T16:10:17;25.70;65.80
67769;DHT22;54569;52.018;5.584;2023-07-09T16:12:44;25.80;65.80
67769;DHT22;54569;52.018;5.584;2023-07-09T16:15:15;25.80;66.00
67769;DHT22;54569;52.018;5.584;2023-07-09T16:17:42;25.80;66.60
67769;DHT22;54569;52.018;5.584;2023-07-09T16:20:13;25.80;66.20
67769;DHT22;54569;52.018;5.584;2023-07-09T16:22:40;25.90;66.40
67769;DHT22;54569;52.018;5.584;2023-07-09T16:27:38;26.00;66.90
67769;DHT22;54569;52.018;5.584;2023-07-09T16:30:19;25.90;66.50
67769;DHT22;54569;52.018;5.584;2023-07-09T16:32:45;25.90;66.80
67769;DHT22;54569;52.018;5.584;2023-07-09T16:35:14;25.80;66.80